Time;durP1;ratioP1;P1;durP2;ratioP2;P2;SDS_P1;SDS_P2;PMS_P1;PMS_P2;Temp;Humidity;BMP_temperature;BMP_pressure;BME280_temperature;BME280_humidity;BME280_pressure;Samples;Min_cycle;Max_cycle;Signal;HPM_P1;HPM_P2
2022/05/08 00:01:45;;;;;;;20.30;7.30;;;;;;;12.99;100.00;102449.34;5105361;28;20408;-64
2022/05/08 00:04:11;;;;;;;20.30;6.90;;;;;;;12.94;100.00;102451.91;5101944;28;20035;-64
2022/05/08 00:06:36;;;;;;;19.90;7.07;;;;;;;12.96;100.00;102452.84;5103440;28;20031;-64
2022/05/08 00:09:02;;;;;;;20.92;7.38;;;;;;;12.94;100.00;102451.03;5103170;28;20110;-64
2022/05/08 00:11:27;;;;;;;21.23;7.43;;;;;;;12.82;100.00;102449.91;5102501;28;20048;-65
2022/05/08 00:13:53;;;;;;;19.67;7.43;;;;;;;12.83;100.00;102445.47;5104341;28;20466;-64
2022/05/08 00:16:18;;;;;;;19.60;6.70;;;;;;;12.79;100.00;102446.31;5101362;28;20077;-66
2022/05/08 00:18:43;;;;;;;20.67;7.70;;;;;;;12.79;100.00;102441.88;5104504;28;20042;-65
2022/05/08 00:21:09;;;;;;;21.27;7.55;;;;;;;12.71;100.00;102448.78;5100515;28;20040;-65
2022/05/08 00:23:34;;;;;;;20.52;7.40;;;;;;;12.74;100.00;102446.19;5103171;28;20471;-65
2022/05/08 00:25:59;;;;;;;22.95;7.88;;;;;;;12.74;100.00;102451.50;5103123;28;20024;-68
2022/05/08 00:28:25;;;;;;;21.83;7.82;;;;;;;12.67;100.00;102445.19;5101883;28;20031;-66
2022/05/08 00:30:50;;;;;;;22.08;8.13;;;;;;;12.69;100.00;102445.22;5104790;28;20347;-65
2022/05/08 00:33:15;;;;;;;21.20;8.40;;;;;;;12.70;100.00;102449.66;5101307;28;20044;-65
2022/05/08 00:35:41;;;;;;;21.58;8.57;;;;;;;12.71;100.00;102447.03;5104009;28;20397;-65
2022/05/08 00:38:08;;;;;;;21.40;8.00;;;;;;;12.67;100.00;102441.66;5102151;28;20016;-69
2022/05/08 00:40:35;;;;;;;21.88;8.90;;;;;;;12.57;100.00;102440.53;5101896;28;20039;-64
2022/05/08 00:43:36;;;;;;;21.65;8.43;;;;;;;12.59;100.00;102448.53;5103141;28;20398;-64
2022/05/08 00:46:07;;;;;;;21.27;8.73;;;;;;;12.54;100.00;102448.44;5102524;28;20066;-64
2022/05/08 00:48:33;;;;;;;21.55;9.20;;;;;;;12.54;100.00;102444.03;5102605;28;20027;-64
2022/05/08 00:51:00;;;;;;;23.23;8.90;;;;;;;12.56;100.00;102458.19;5102022;28;20028;-64
2022/05/08 00:53:30;;;;;;;22.23;9.45;;;;;;;12.50;100.00;102454.53;5103397;28;20047;-68
2022/05/08 00:55:56;;;;;;;22.45;9.35;;;;;;;12.44;100.00;102455.28;5101497;28;20032;-69
2022/05/08 00:58:22;;;;;;;23.70;9.90;;;;;;;12.44;100.00;102457.94;5104568;28;20024;-63
2022/05/08 01:00:48;;;;;;;22.55;9.80;;;;;;;12.44;100.00;102460.59;5100708;28;20042;-65
2022/05/08 01:03:14;;;;;;;25.17;9.80;;;;;;;12.38;100.00;102460.47;5103736;28;20035;-64
2022/05/08 01:05:41;;;;;;;23.77;10.35;;;;;;;12.34;100.00;102458.59;5102742;28;20492;-66
2022/05/08 01:08:08;;;;;;;22.20;10.30;;;;;;;12.28;100.00;102458.47;5106799;28;20463;-64
2022/05/08 01:10:35;;;;;;;23.67;10.57;;;;;;;12.21;100.00;102458.31;5106457;28;20088;-64
2022/05/08 01:13:01;;;;;;;22.80;10.38;;;;;;;12.18;100.00;102462.66;5106277;28;20016;-64
2022/05/08 01:15:28;;;;;;;22.48;10.27;;;;;;;12.19;100.00;102456.50;5107008;28;20019;-64
2022/05/08 01:17:53;;;;;;;22.88;10.70;;;;;;;12.20;100.00;102461.84;5105011;28;20425;-64
2022/05/08 01:20:19;;;;;;;24.45;10.85;;;;;;;12.12;100.00;102460.75;5107926;28;20023;-64
2022/05/08 01:22:45;;;;;;;24.33;10.60;;;;;;;12.13;100.00;102459.91;5104347;28;20485;-64
2022/05/08 01:25:10;;;;;;;23.15;10.95;;;;;;;12.08;100.00;102460.66;5107261;28;20040;-64
2022/05/08 01:27:35;;;;;;;23.92;11.63;;;;;;;12.02;100.00;102461.41;5105576;28;20024;-64
2022/05/08 01:30:00;;;;;;;23.33;11.60;;;;;;;12.07;100.00;102459.72;5105751;28;20039;-64
2022/05/08 01:32:26;;;;;;;22.48;10.95;;;;;;;12.03;100.00;102463.19;5107054;28;20492;-64
2022/05/08 01:34:52;;;;;;;24.08;11.50;;;;;;;11.98;100.00;102462.19;5103115;28;20032;-64
2022/05/08 01:37:17;;;;;;;23.75;11.80;;;;;;;11.91;100.00;102463.75;5107921;28;20036;-64
2022/05/08 01:39:43;;;;;;;23.85;11.60;;;;;;;11.91;100.00;102458.47;5104493;28;20051;-64
2022/05/08 01:42:08;;;;;;;23.35;11.65;;;;;;;11.83;100.00;102460.91;5106360;28;20024;-64
2022/05/08 01:44:34;;;;;;;23.58;12.10;;;;;;;11.83;100.00;102470.63;5105861;28;20103;-64
2022/05/08 01:49:43;;;;;;;24.35;11.60;;;;;;;11.73;100.00;102468.59;5104357;28;20035;-64
2022/05/08 01:52:09;;;;;;;23.85;11.38;;;;;;;11.64;100.00;102474.56;5106222;28;20044;-64
2022/05/08 01:54:34;;;;;;;23.75;11.88;;;;;;;11.65;100.00;102473.72;5105384;28;20034;-64
2022/05/08 01:57:00;;;;;;;24.27;11.70;;;;;;;11.67;100.00;102480.81;5119302;28;20035;-64
2022/05/08 01:59:25;;;;;;;25.02;12.15;;;;;;;11.63;100.00;102483.34;5124186;27;20020;-64
2022/05/08 02:01:51;;;;;;;24.15;12.18;;;;;;;11.53;100.00;102471.59;5120591;28;20032;-63
2022/05/08 02:04:17;;;;;;;26.05;11.88;;;;;;;11.54;100.00;102480.47;5114057;28;20027;-64
2022/05/08 02:06:43;;;;;;;23.77;12.02;;;;;;;11.55;100.00;102477.84;5104275;28;20132;-64
2022/05/08 02:09:08;;;;;;;23.52;12.10;;;;;;;11.48;100.00;102490.03;5105980;28;20020;-64
2022/05/08 02:11:33;;;;;;;24.77;12.45;;;;;;;11.50;100.00;102487.41;5105540;28;20530;-64
2022/05/08 02:13:59;;;;;;;26.02;12.48;;;;;;;11.48;100.00;102491.78;5104567;28;20111;-64
2022/05/08 02:16:24;;;;;;;24.95;12.27;;;;;;;11.38;100.00;102488.00;5108790;28;20030;-64
2022/05/08 02:18:50;;;;;;;26.27;12.73;;;;;;;11.32;100.00;102488.72;5104988;28;20020;-64
2022/05/08 02:21:15;;;;;;;25.73;12.70;;;;;;;11.36;100.00;102494.09;5109001;28;20023;-64
2022/05/08 02:23:41;;;;;;;25.00;12.38;;;;;;;11.32;100.00;102493.13;5104298;28;20028;-64
2022/05/08 02:26:06;;;;;;;26.08;12.80;;;;;;;11.21;100.00;102495.47;5105168;28;20463;-64
2022/05/08 02:28:31;;;;;;;25.75;12.73;;;;;;;11.15;100.00;102493.56;5105172;28;20030;-64
2022/05/08 02:30:57;;;;;;;25.33;12.95;;;;;;;11.14;100.00;102499.69;5104184;28;20028;-64
2022/05/08 02:33:22;;;;;;;27.55;13.02;;;;;;;11.16;100.00;102499.75;5106530;28;20034;-64
2022/05/08 02:35:48;;;;;;;26.30;13.05;;;;;;;11.09;100.00;102498.66;5102829;28;20028;-65
2022/05/08 02:38:13;;;;;;;24.73;12.43;;;;;;;11.18;100.00;102499.78;5106251;28;20036;-64
2022/05/08 02:40:38;;;;;;;27.67;13.23;;;;;;;11.13;100.00;102497.91;5103797;28;20023;-65
2022/05/08 02:43:04;;;;;;;26.50;12.90;;;;;;;11.11;100.00;102504.00;5104812;28;20040;-74
2022/05/08 02:45:29;;;;;;;25.58;12.57;;;;;;;11.14;100.00;102494.41;5105178;28;20030;-65
2022/05/08 02:47:54;;;;;;;25.58;13.02;;;;;;;11.16;100.00;102503.28;5103214;28;20028;-64
2022/05/08 02:50:20;;;;;;;26.58;12.85;;;;;;;11.07;100.00;102503.03;5106326;28;20127;-64
2022/05/08 02:52:46;;;;;;;26.60;13.25;;;;;;;11.06;100.00;102502.97;5101365;28;20043;-65
2022/05/08 03:00:43;;;;;;;26.08;12.75;;;;;;;10.94;100.00;102511.47;5103540;28;20071;-68
2022/05/08 03:03:09;;;;;;;26.63;13.48;;;;;;;11.02;100.00;102515.22;5105050;28;20372;-63
2022/05/08 03:05:35;;;;;;;26.08;12.88;;;;;;;10.94;100.00;102503.53;5104328;28;20383;-64
2022/05/08 03:08:01;;;;;;;26.90;13.43;;;;;;;10.98;100.00;102506.31;5103481;28;20478;-68
2022/05/08 03:10:27;;;;;;;25.67;13.32;;;;;;;10.95;100.00;102503.56;5105529;28;20023;-64
2022/05/08 03:12:53;;;;;;;28.33;13.60;;;;;;;10.85;100.00;102504.16;5102667;28;20028;-64
2022/05/08 03:15:19;;;;;;;25.60;12.80;;;;;;;10.77;100.00;102498.63;5105647;28;20023;-66
2022/05/08 03:17:44;;;;;;;27.90;12.57;;;;;;;10.70;100.00;102507.22;5102657;27;20081;-63
2022/05/08 03:20:11;;;;;;;26.63;12.98;;;;;;;10.75;100.00;102500.34;5104894;28;20016;-63
2022/05/08 03:22:36;;;;;;;27.33;13.45;;;;;;;10.73;100.00;102499.41;5103768;28;20443;-64
2022/05/08 03:25:02;;;;;;;27.02;12.70;;;;;;;10.71;100.00;102503.72;5103781;28;20103;-64
2022/05/08 03:27:27;;;;;;;26.65;12.77;;;;;;;10.76;100.00;102493.28;5104652;28;20402;-64
2022/05/08 03:29:52;;;;;;;26.98;11.95;;;;;;;10.71;100.00;102495.78;5101811;28;20030;-64
2022/05/08 03:32:18;;;;;;;26.25;12.02;;;;;;;10.69;100.00;102499.22;5106013;27;20067;-64
2022/05/08 03:34:43;;;;;;;26.23;11.35;;;;;;;10.62;100.00;102506.09;5102262;28;20024;-63
2022/05/08 03:37:08;;;;;;;27.60;11.50;;;;;;;10.55;100.00;102504.13;5104325;28;20176;-63
2022/05/08 03:39:33;;;;;;;25.25;10.57;;;;;;;10.62;100.00;102511.41;5103628;28;20481;-64
2022/05/08 03:41:59;;;;;;;27.48;10.55;;;;;;;10.57;100.00;102505.06;5102597;28;20518;-64
2022/05/08 03:44:24;;;;;;;25.52;9.25;;;;;;;10.60;100.00;102502.50;5105142;28;20031;-63
2022/05/08 03:46:49;;;;;;;26.63;9.63;;;;;;;10.56;100.00;102506.81;5101642;28;20016;-63
2022/05/08 03:49:15;;;;;;;28.40;9.27;;;;;;;10.52;100.00;102504.03;5104692;28;20024;-64
2022/05/08 03:51:41;;;;;;;25.17;9.05;;;;;;;10.43;100.00;102508.16;5102720;28;20019;-64
2022/05/08 03:54:08;;;;;;;28.38;9.43;;;;;;;10.45;100.00;102506.47;5103302;28;20097;-64
2022/05/08 03:56:34;;;;;;;24.55;8.52;;;;;;;10.40;100.00;102502.78;5103330;28;20016;-63
2022/05/08 03:59:00;;;;;;;26.45;8.73;;;;;;;10.39;100.00;102505.38;5103050;28;20028;-64
2022/05/08 04:01:26;;;;;;;28.90;9.13;;;;;;;10.30;100.00;102505.97;5104822;28;20068;-63
2022/05/08 04:03:51;;;;;;;24.33;8.13;;;;;;;10.31;100.00;102513.06;5101546;28;20059;-64
2022/05/08 04:06:16;;;;;;;24.77;8.32;;;;;;;10.27;100.00;102512.03;5105422;28;20482;-64
2022/05/08 04:08:42;;;;;;;25.23;8.52;;;;;;;10.28;100.00;102503.28;5102780;28;20119;-64
2022/05/08 04:11:07;;;;;;;25.40;8.70;;;;;;;10.32;100.00;102512.19;5103820;28;20030;-63
2022/05/08 04:13:32;;;;;;;25.50;8.82;;;;;;;10.29;100.00;102520.00;5103576;28;20051;-64
2022/05/08 04:16:16;;;;;;;26.52;8.23;;;;;;;10.28;100.00;102521.78;5102206;28;20379;-65
2022/05/08 04:18:42;;;;;;;28.50;8.82;;;;;;;10.27;100.00;102522.63;5102501;28;20102;-65
2022/05/08 04:21:07;;;;;;;26.83;8.13;;;;;;;10.23;100.00;102525.13;5104031;28;20050;-66
2022/05/08 04:26:16;;;;;;;27.30;7.50;;;;;;;10.19;100.00;102529.38;5104931;28;20038;-65
2022/05/08 04:28:41;;;;;;;26.15;7.78;;;;;;;10.16;100.00;102533.69;5102330;28;20019;-65
2022/05/08 04:31:07;;;;;;;26.63;7.70;;;;;;;10.12;100.00;102524.78;5104345;28;20477;-65
2022/05/08 04:33:32;;;;;;;25.90;7.32;;;;;;;10.08;100.00;102531.69;5104542;28;20020;-66
2022/05/08 04:35:57;;;;;;;25.10;7.50;;;;;;;10.10;100.00;102532.63;5103106;28;20031;-65
2022/05/08 04:38:23;;;;;;;28.63;7.53;;;;;;;10.08;100.00;102530.81;5106143;28;20502;-67
2022/05/08 04:40:48;;;;;;;28.63;7.68;;;;;;;10.07;100.00;102531.63;5104312;28;20027;-65
2022/05/08 04:43:13;;;;;;;28.05;7.72;;;;;;;10.02;100.00;102525.28;5109359;28;20049;-64
2022/05/08 04:45:39;;;;;;;26.35;7.45;;;;;;;9.97;100.00;102535.72;5115612;28;20023;-64
2022/05/08 04:48:05;;;;;;;26.58;7.35;;;;;;;9.95;100.00;102540.94;5128480;28;20029;-66
2022/05/08 04:50:31;;;;;;;27.13;7.25;;;;;;;9.98;100.00;102540.16;5128521;28;20039;-65
2022/05/08 04:52:56;;;;;;;27.63;7.18;;;;;;;10.04;100.00;102540.34;5125070;28;20143;-67
2022/05/08 04:55:21;;;;;;;30.25;7.60;;;;;;;10.03;100.00;102543.88;5128454;28;20046;-63
2022/05/08 04:57:46;;;;;;;27.60;7.30;;;;;;;9.98;100.00;102540.16;5125186;28;20041;-63
2022/05/08 05:00:13;;;;;;;29.65;8.23;;;;;;;9.91;100.00;102549.59;5128157;28;20024;-64
2022/05/08 05:02:38;;;;;;;26.65;7.20;;;;;;;9.95;100.00;102550.63;5123211;28;20055;-66
2022/05/08 05:05:06;;;;;;;28.63;7.70;;;;;;;9.92;100.00;102550.53;5107938;28;20031;-68
2022/05/08 05:07:31;;;;;;;28.73;7.60;;;;;;;9.92;100.00;102556.69;5107175;28;20489;-69
2022/05/08 05:09:56;;;;;;;28.55;7.70;;;;;;;9.88;100.00;102561.81;5105119;28;20020;-68
2022/05/08 05:12:23;;;;;;;30.27;7.30;;;;;;;9.93;100.00;102566.41;5108551;28;20402;-68
2022/05/08 05:14:48;;;;;;;28.70;7.28;;;;;;;9.91;100.00;102564.56;5105015;28;20046;-66
2022/05/08 05:17:13;;;;;;;27.90;7.10;;;;;;;9.94;100.00;102570.84;5107511;28;20517;-68
2022/05/08 05:19:39;;;;;;;30.48;7.63;;;;;;;9.99;100.00;102567.47;5105970;28;20053;-69
2022/05/08 05:22:05;;;;;;;28.35;7.43;;;;;;;10.08;100.00;102567.78;5106299;28;20024;-68
2022/05/08 05:24:30;;;;;;;28.90;7.60;;;;;;;10.11;100.00;102568.78;5106938;28;20076;-70
2022/05/08 05:26:56;;;;;;;28.88;7.18;;;;;;;10.12;100.00;102575.00;5104913;28;20092;-67
2022/05/08 05:29:22;;;;;;;30.83;8.38;;;;;;;10.16;100.00;102578.63;5107844;28;20531;-65
2022/05/08 05:31:47;;;;;;;28.40;6.88;;;;;;;10.24;100.00;102585.94;5104874;28;20051;-73
2022/05/08 05:34:13;;;;;;;28.90;7.65;;;;;;;10.30;100.00;102588.78;5107083;28;20047;-72
2022/05/08 05:36:38;;;;;;;29.85;7.25;;;;;;;10.33;100.00;102585.34;5105832;28;20462;-64
2022/05/08 05:39:03;;;;;;;28.35;7.22;;;;;;;10.33;100.00;102595.03;5105865;28;20020;-64
2022/05/08 05:41:29;;;;;;;28.63;7.40;;;;;;;10.35;100.00;102594.25;5106920;28;20027;-64
2022/05/08 05:43:54;;;;;;;26.92;7.45;;;;;;;10.38;100.00;102599.69;5104067;28;20078;-64
2022/05/08 05:49:04;;;;;;;27.30;6.93;;;;;;;10.56;100.00;102609.06;5105907;28;20115;-64
2022/05/08 05:51:29;;;;;;;27.75;6.90;;;;;;;10.69;100.00;102605.03;5106048;28;20106;-64
2022/05/08 05:53:55;;;;;;;27.63;6.97;;;;;;;10.67;100.00;102618.22;5102779;28;20051;-64
2022/05/08 05:56:20;;;;;;;26.42;6.90;;;;;;;10.62;100.00;102617.19;5106700;28;20027;-63
2022/05/08 05:58:46;;;;;;;29.48;7.28;;;;;;;10.68;100.00;102620.00;5102884;28;20055;-64
2022/05/08 06:01:11;;;;;;;26.83;7.20;;;;;;;10.64;100.00;102618.13;5105248;28;20123;-64
2022/05/08 06:03:38;;;;;;;26.60;6.78;;;;;;;10.68;100.00;102622.66;5104194;28;20028;-64
2022/05/08 06:06:03;;;;;;;26.98;6.93;;;;;;;10.73;100.00;102622.81;5103662;28;20481;-64
2022/05/08 06:08:28;;;;;;;27.63;6.88;;;;;;;10.82;100.00;102623.13;5105240;28;20024;-65
2022/05/08 06:10:54;;;;;;;27.45;6.65;;;;;;;10.81;100.00;102627.50;5102583;28;20020;-64
2022/05/08 06:13:21;;;;;;;26.95;6.75;;;;;;;10.89;100.00;102634.78;5105798;28;20059;-64
2022/05/08 06:15:47;;;;;;;26.52;6.78;;;;;;;10.97;100.00;102626.22;5102685;28;20466;-63
2022/05/08 06:18:12;;;;;;;26.70;6.00;;;;;;;11.03;100.00;102636.09;5104639;28;20150;-66
2022/05/08 06:20:38;;;;;;;28.63;6.68;;;;;;;11.11;100.00;102642.53;5111108;28;20034;-63
2022/05/08 06:23:04;;;;;;;27.05;6.47;;;;;;;11.13;99.29;102638.19;5121999;28;20068;-64
2022/05/08 06:25:29;;;;;;;26.13;6.13;;;;;;;11.13;97.05;102645.22;5120466;28;20084;-64
2022/05/08 06:27:54;;;;;;;27.40;6.72;;;;;;;11.18;97.31;102642.72;5105440;28;20028;-64
2022/05/08 06:30:20;;;;;;;26.00;6.78;;;;;;;11.14;96.84;102644.38;5108576;28;20024;-64
2022/05/08 06:32:45;;;;;;;26.42;6.63;;;;;;;11.10;96.13;102643.38;5103251;28;20031;-64
2022/05/08 06:35:10;;;;;;;25.92;6.55;;;;;;;11.18;96.78;102646.25;5109045;28;20023;-64
2022/05/08 06:37:36;;;;;;;28.13;6.47;;;;;;;11.41;96.46;102646.06;5108958;28;20031;-72
2022/05/08 06:40:01;;;;;;;26.20;6.80;;;;;;;11.44;94.40;102654.97;5102593;28;20044;-69
2022/05/08 06:42:26;;;;;;;25.40;6.55;;;;;;;11.56;94.35;102657.09;5112183;28;20073;-67
2022/05/08 06:44:52;;;;;;;28.23;6.85;;;;;;;11.60;94.52;102658.09;5113025;28;20028;-65
2022/05/08 06:47:17;;;;;;;27.35;6.55;;;;;;;11.60;93.28;102661.63;5112818;28;20463;-67
2022/05/08 06:49:42;;;;;;;26.52;6.07;;;;;;;11.69;92.68;102658.34;5112063;28;20024;-71
2022/05/08 06:52:08;;;;;;;28.88;6.75;;;;;;;11.71;92.52;102658.38;5073475;28;1096669;-71
2022/05/08 06:54:33;;;;;;;27.08;6.95;;;;;;;11.62;90.46;102662.59;5111389;28;20035;-72
2022/05/08 06:56:59;;;;;;;27.42;6.40;;;;;;;11.66;91.53;102650.31;5113052;28;20028;-63
2022/05/08 07:02:11;;;;;;;23.95;5.80;;;;;;;11.75;88.65;102654.97;5110124;28;20414;-65
2022/05/08 07:04:37;;;;;;;27.15;6.43;;;;;;;11.78;90.60;102657.69;5111935;28;20023;-63
2022/05/08 07:07:03;;;;;;;29.15;6.70;;;;;;;11.85;90.31;102668.53;5112702;28;20031;-63
2022/05/08 07:09:28;;;;;;;25.92;6.40;;;;;;;11.84;87.38;102663.19;5110714;28;20386;-64
2022/05/08 07:11:53;;;;;;;25.48;6.22;;;;;;;11.80;89.08;102666.59;5109902;28;20114;-64
2022/05/08 07:14:19;;;;;;;28.58;7.05;;;;;;;11.69;88.77;102667.22;5111794;28;20095;-64
2022/05/08 07:16:44;;;;;;;25.58;6.22;;;;;;;11.58;88.62;102673.06;5111251;28;20107;-64
2022/05/08 07:19:10;;;;;;;27.73;6.68;;;;;;;11.48;89.24;102678.06;5111047;28;20024;-64
2022/05/08 07:21:36;;;;;;;25.10;6.20;;;;;;;11.41;89.77;102677.84;5110982;28;20024;-66
2022/05/08 07:24:01;;;;;;;28.92;6.80;;;;;;;11.36;92.83;102667.13;5103516;28;20036;-63
2022/05/08 07:26:27;;;;;;;25.45;6.65;;;;;;;11.31;92.45;102676.66;5106386;28;20050;-63
2022/05/08 07:28:52;;;;;;;26.92;6.63;;;;;;;11.32;92.66;102679.34;5103817;28;20031;-64
2022/05/08 07:31:17;;;;;;;24.15;6.45;;;;;;;11.25;91.88;102674.72;5104880;28;20450;-63
2022/05/08 07:33:43;;;;;;;26.40;6.65;;;;;;;11.20;93.14;102673.69;5099907;28;20020;-64
2022/05/08 07:36:14;;;;;;;25.05;6.53;;;;;;;11.21;93.40;102679.88;5102374;28;20027;-63
2022/05/08 07:38:41;;;;;;;26.63;6.65;;;;;;;11.26;95.16;102672.97;5109213;28;20424;-63
2022/05/08 07:41:07;;;;;;;25.02;6.95;;;;;;;11.29;93.28;102671.31;5113145;28;20050;-63
2022/05/08 07:43:32;;;;;;;28.27;7.10;;;;;;;11.36;91.30;102683.00;5102163;28;20462;-63
2022/05/08 07:45:59;;;;;;;26.20;6.80;;;;;;;11.44;94.59;102683.22;5103902;28;20034;-64
2022/05/08 07:48:24;;;;;;;29.08;7.10;;;;;;;11.40;91.39;102687.53;5103714;28;20030;-66
2022/05/08 07:50:50;;;;;;;27.15;7.07;;;;;;;11.46;92.41;102693.00;5102779;28;20364;-65
2022/05/08 07:53:15;;;;;;;26.52;7.07;;;;;;;11.63;93.54;102685.53;5104596;28;20084;-64
2022/05/08 07:55:41;;;;;;;25.92;6.90;;;;;;;11.74;91.57;102687.63;5101902;28;20039;-64
2022/05/08 07:58:06;;;;;;;25.52;6.82;;;;;;;11.76;89.27;102691.22;5101581;28;20016;-65
2022/05/08 08:00:32;;;;;;;26.95;6.93;;;;;;;11.82;90.37;102692.31;5104579;28;20494;-64
2022/05/08 08:02:57;;;;;;;26.30;7.28;;;;;;;11.95;88.98;102687.38;5102769;28;20024;-64
2022/05/08 08:05:23;;;;;;;28.70;6.93;;;;;;;12.01;87.96;102692.84;5102995;28;20433;-64
2022/05/08 08:07:49;;;;;;;31.45;7.80;;;;;;;12.05;88.85;102692.06;5104174;28;20028;-63
2022/05/08 08:10:15;;;;;;;28.23;7.32;;;;;;;12.11;86.73;102694.88;5101931;28;20024;-65
2022/05/08 08:12:40;;;;;;;27.33;6.75;;;;;;;12.16;87.25;102690.63;5105006;28;20489;-66
2022/05/08 08:15:06;;;;;;;30.17;7.63;;;;;;;12.26;85.62;102688.19;5104021;28;20028;-64
2022/05/08 08:17:32;;;;;;;25.50;6.97;;;;;;;12.40;86.35;102683.28;5104055;28;20019;-64
2022/05/08 08:19:57;;;;;;;26.75;6.90;;;;;;;12.51;84.01;102695.06;5097098;28;20076;-65
2022/05/08 08:22:23;;;;;;;25.20;6.65;;;;;;;12.97;82.36;102690.88;5102207;28;20036;-63
2022/05/08 08:24:49;;;;;;;27.13;6.60;;;;;;;13.88;77.42;102700.88;5102451;28;20086;-65
2022/05/08 08:27:16;;;;;;;26.25;6.55;;;;;;;14.74;72.32;102695.38;5101308;28;20032;-63
2022/05/08 08:29:41;;;;;;;23.23;6.10;;;;;;;15.52;70.11;102700.94;5104678;28;20058;-65
2022/05/08 08:32:07;;;;;;;27.58;7.10;;;;;;;15.72;66.10;102705.63;5101298;28;20414;-64
2022/05/08 08:34:33;;;;;;;27.00;6.65;;;;;;;15.80;66.25;102703.97;5103771;28;20073;-65
2022/05/08 08:36:58;;;;;;;27.48;6.63;;;;;;;15.49;67.31;102704.47;5102078;28;20104;-64
2022/05/08 08:39:23;;;;;;;24.15;6.22;;;;;;;15.24;66.41;102710.31;5102813;28;20028;-68
2022/05/08 08:41:55;;;;;;;23.35;6.38;;;;;;;15.02;66.91;102701.13;5103504;28;20019;-64
2022/05/08 08:49:53;;;;;;;24.35;5.85;;;;;;;15.45;61.87;102701.72;5102645;28;20514;-67
2022/05/08 08:52:21;;;;;;;23.75;5.90;;;;;;;15.27;63.02;102702.38;5103736;28;20052;-64
2022/05/08 08:54:47;;;;;;;25.17;6.25;;;;;;;15.20;60.82;102700.50;5101103;28;20483;-65
2022/05/08 08:57:13;;;;;;;24.38;5.88;;;;;;;15.19;60.60;102704.94;5104208;28;20106;-68
2022/05/08 08:59:38;;;;;;;21.83;5.22;;;;;;;15.24;59.93;102707.66;5101257;28;20031;-68
2022/05/08 09:02:03;;;;;;;22.08;5.55;;;;;;;15.41;56.79;102705.25;5103699;28;20382;-68
2022/05/08 09:04:29;;;;;;;23.52;5.60;;;;;;;15.38;56.69;102706.09;5101816;28;20161;-66
2022/05/08 09:06:55;;;;;;;22.80;5.28;;;;;;;15.42;58.67;102701.69;5102714;28;20026;-67
2022/05/08 09:09:31;;;;;;;22.58;5.18;;;;;;;15.53;59.16;102708.06;5103155;28;20470;-69
2022/05/08 09:11:57;;;;;;;23.40;5.55;;;;;;;15.67;57.95;102703.81;5102157;28;20097;-65
2022/05/08 09:14:29;;;;;;;25.13;5.90;;;;;;;15.75;58.45;102700.34;5103556;28;20176;-64
2022/05/08 09:16:55;;;;;;;22.67;5.65;;;;;;;16.09;59.16;102701.66;5100738;28;20493;-67
2022/05/08 09:19:49;;;;;;;22.30;5.63;;;;;;;16.31;60.75;102699.19;5102748;28;20023;-65
2022/05/08 09:22:18;;;;;;;23.25;5.50;;;;;;;16.42;57.25;102701.97;5057320;28;20044;-66
2022/05/08 09:24:53;;;;;;;24.85;5.60;;;;;;;16.80;55.11;102707.63;5059367;28;20067;-72
2022/05/08 09:27:19;;;;;;;22.25;5.25;;;;;;;17.37;52.06;102693.78;5061190;28;20060;-68
2022/05/08 09:29:45;;;;;;;22.05;5.20;;;;;;;17.90;50.90;102698.53;5063256;28;20040;-68
2022/05/08 09:32:35;;;;;;;22.42;5.28;;;;;;;19.39;48.62;102699.44;5064008;28;20037;-64
2022/05/08 09:35:02;;;;;;;23.42;5.38;;;;;;;20.17;40.76;102690.13;5061295;28;20052;-65
2022/05/08 09:37:27;;;;;;;21.25;5.30;;;;;;;21.20;40.01;102691.06;5061763;28;20083;-67
2022/05/08 09:40:16;;;;;;;23.83;5.57;;;;;;;22.48;39.30;102688.47;5063955;28;20115;-64
2022/05/08 09:42:41;;;;;;;23.42;5.40;;;;;;;23.09;35.34;102681.06;5062749;28;20112;-65
2022/05/08 09:45:08;;;;;;;21.42;5.40;;;;;;;23.77;33.17;102692.34;5064221;28;20171;-65
2022/05/08 09:48:02;;;;;;;20.15;4.82;;;;;;;24.62;33.30;102687.66;5061339;28;20025;-64
2022/05/08 09:50:29;;;;;;;21.05;4.78;;;;;;;24.66;29.57;102697.47;4966781;28;20183;-64
2022/05/08 09:52:55;;;;;;;21.00;4.95;;;;;;;24.59;28.53;102685.94;4967080;28;20093;-66
2022/05/08 09:55:20;;;;;;;21.67;4.70;;;;;;;24.65;28.79;102682.19;4966510;28;20498;-65
2022/05/08 09:57:45;;;;;;;19.88;4.70;;;;;;;25.05;28.42;102690.09;4972859;28;20156;-65
2022/05/08 10:00:12;;;;;;;19.98;4.60;;;;;;;24.90;28.96;102698.63;5024936;28;20490;-65
2022/05/08 10:02:38;;;;;;;19.98;4.72;;;;;;;25.28;28.60;102682.28;5023994;28;20473;-65
2022/05/08 10:05:04;;;;;;;22.52;4.90;;;;;;;25.58;28.00;102691.34;5021166;28;20026;-65
2022/05/08 10:07:31;;;;;;;19.63;4.60;;;;;;;26.25;26.83;102695.63;5024561;28;20037;-65
2022/05/08 10:15:31;;;;;;;20.98;4.60;;;;;;;27.29;25.03;102680.25;5024525;28;20483;-65
2022/05/08 10:18:27;;;;;;;22.02;5.28;;;;;;;27.88;24.61;102682.56;5021182;28;20499;-65
2022/05/08 10:21:12;;;;;;;20.95;4.65;;;;;;;28.05;26.03;102663.78;5024956;28;20041;-65
2022/05/08 10:23:47;;;;;;;21.05;4.57;;;;;;;27.95;24.76;102662.34;5024807;28;20083;-66
2022/05/08 10:26:23;;;;;;;20.48;4.40;;;;;;;28.37;24.19;102672.44;5041305;28;20040;-67
2022/05/08 10:29:03;;;;;;;20.20;4.30;;;;;;;28.97;24.45;102661.66;5104950;28;20432;-65
2022/05/08 10:31:45;;;;;;;20.48;4.40;;;;;;;28.61;23.92;102662.34;5103171;28;20042;-67
2022/05/08 10:34:11;;;;;;;17.63;4.20;;;;;;;28.33;22.83;102657.19;5104192;28;20060;-65
2022/05/08 10:36:37;;;;;;;20.15;4.53;;;;;;;28.84;22.51;102653.16;5105917;28;20023;-66
2022/05/08 10:39:35;;;;;;;18.65;4.15;;;;;;;29.81;24.29;102660.53;5101857;28;20031;-69
2022/05/08 10:42:00;;;;;;;18.42;4.30;;;;;;;29.78;21.21;102653.41;5102750;28;20110;-65
2022/05/08 10:44:40;;;;;;;18.15;4.20;;;;;;;29.65;22.25;102650.38;5103019;28;20111;-65
2022/05/08 10:47:43;;;;;;;18.08;4.22;;;;;;;29.82;22.54;102655.03;5103059;28;20558;-65
2022/05/08 10:50:09;;;;;;;20.23;4.30;;;;;;;29.84;21.03;102653.13;5105163;28;20038;-65
2022/05/08 10:52:42;;;;;;;19.15;4.45;;;;;;;29.96;21.57;102646.19;5108211;28;20027;-65
2022/05/08 10:55:12;;;;;;;19.45;4.20;;;;;;;30.19;21.05;102645.03;5104072;28;20051;-65
2022/05/08 10:57:38;;;;;;;19.75;4.20;;;;;;;30.39;20.72;102652.19;5107362;28;20027;-64
2022/05/08 11:00:07;;;;;;;18.35;3.90;;;;;;;30.36;21.04;102652.34;5102446;28;20463;-65
2022/05/08 11:02:51;;;;;;;18.05;4.15;;;;;;;30.44;21.42;102643.81;5106082;28;20220;-65
2022/05/08 11:05:22;;;;;;;19.40;4.32;;;;;;;30.44;20.69;102641.06;5104479;28;20356;-65
2022/05/08 11:07:50;;;;;;;19.90;4.23;;;;;;;31.00;21.13;102644.50;5103821;28;20371;-65
2022/05/08 11:10:18;;;;;;;18.08;4.38;;;;;;;31.51;20.93;102649.00;5104140;28;20404;-65
2022/05/08 11:12:55;;;;;;;20.40;4.30;;;;;;;31.72;20.51;102647.81;5104485;27;20528;-65
2022/05/08 11:15:20;;;;;;;20.80;4.43;;;;;;;31.96;19.27;102645.50;5104802;28;20024;-65
2022/05/08 11:17:46;;;;;;;18.90;4.30;;;;;;;31.85;19.01;102652.56;5103963;28;20050;-65
2022/05/08 11:20:15;;;;;;;21.92;4.60;;;;;;;31.28;20.03;102648.44;5103013;28;20020;-65
2022/05/08 11:22:54;;;;;;;16.73;4.00;;;;;;;32.07;19.75;102644.88;5104713;28;20110;-65
2022/05/08 11:25:20;;;;;;;18.67;4.13;;;;;;;31.91;18.45;102636.69;5104541;28;20052;-65
2022/05/08 11:27:58;;;;;;;17.27;3.80;;;;;;;31.77;19.73;102640.22;5103906;28;20514;-65
2022/05/08 11:30:35;;;;;;;17.65;3.85;;;;;;;32.31;19.79;102639.84;5104461;28;20028;-65
2022/05/08 11:36:08;;;;;;;20.02;4.28;;;;;;;32.14;19.70;102632.66;5103702;28;20584;-66
2022/05/08 11:38:53;;;;;;;16.95;3.78;;;;;;;32.41;19.33;102631.94;5101999;28;20039;-65
2022/05/08 11:41:21;;;;;;;19.05;4.30;;;;;;;32.63;18.82;102625.16;5104057;28;20054;-66
2022/05/08 11:43:49;;;;;;;17.65;4.30;;;;;;;32.90;18.50;102622.59;5103417;28;20024;-66